• Join FlightAware (Why Join?)
  • Login
  • US Flag 
Rudolph Flight #1: Arrived! 
11:16AM EST


 

Airport Tracker/Info


-or-


 

Live Flight TrackerFlight Track Log ✈ SWA407 ✈ 17-Apr-2013 ✈ KMCO - KATL

Flight Track Log - Related Links

Times and Time Zones

All times are in EDT time to prevent confusion due to time zone crossing. See the SWA407 flight status page for this flight to view local times or setup timezone preferences in your user account.

Time Position Orientation Groundspeed Altitude Reporting Facility
EDT Latitude Longitude Course Direction KTS MPH feet Rate Location/Type
02:59PM 28.4333 -81.3000 19° North 149 171 1,000  Level Orlando TRACON
03:01PM 28.5167 -81.2667 19° North 266 306 4,700 2,700 Climbing Orlando TRACON
03:03PM 28.6267 -81.3197 337° Northwest 293 337 9,600 3,180 Climbing Jacksonville Center
03:04PM 28.7044 -81.3706 330° Northwest 299 344 12,800 3,180 Climbing Jacksonville Center
03:05PM 28.7906 -81.4239 332° Northwest 327 376 16,000 2,460 Climbing Jacksonville Center
03:06PM 28.8831 -81.4722 335° Northwest 348 400 17,800 2,400 Climbing Jacksonville Center
03:07PM 28.9833 -81.5017 346° North 365 420 20,900 2,640 Climbing Jacksonville Center
03:08PM 29.0903 -81.5358 344° North 377 434 23,100 2,400 Climbing Jacksonville Center
03:09PM 29.1992 -81.5700 345° North 390 449 25,700 2,700 Climbing Jacksonville Center
03:10PM 29.3081 -81.6089 343° North 402 463 28,600 2,940 Climbing Jacksonville Center
03:11PM 29.4211 -81.6408 346° North 408 470 31,600 2,160 Climbing Jacksonville Center
03:12PM 29.5300 -81.6778 344° North 408 470 33,000 660 Climbing Jacksonville Center
03:13PM 29.6411 -81.7122 345° North 408 470 33,000 120 Level Jacksonville Center
03:14PM 29.7519 -81.7467 345° North 408 470 33,300 960 Climbing Jacksonville Center
03:15PM 29.8608 -81.7814 345° North 403 464 35,000 840 Climbing Jacksonville Center
03:16PM 29.9697 -81.8161 345° North 403 464 35,000  Level Jacksonville Center
03:17PM 30.0786 -81.8461 347° North 403 464 35,000  Level Jacksonville Center
03:18PM 30.1872 -81.8808 345° North 397 457 35,000  Level Jacksonville Center
03:19PM 30.3022 -81.8772 North 397 457 35,000  Level Jacksonville Center
03:20PM 30.4147 -81.8617 North 397 457 35,000  Level Jacksonville Center
03:21PM 30.5236 -81.8894 348° North 411 473 35,000  Level Jacksonville Center
03:22PM 30.6200 -81.9392 336° Northwest 406 467 35,000  Level Jacksonville Center
03:23PM 30.7247 -81.9864 339° North 406 467 35,000  Level Jacksonville Center
03:24PM 30.8294 -82.0314 340° North 401 461 35,000  Level Jacksonville Center
03:25PM 30.9342 -82.0811 338° Northwest 401 461 35,000  Level Jacksonville Center
03:26PM 31.0408 -82.1289 339° North 401 461 35,000  Level Jacksonville Center
03:27PM 31.1456 -82.1764 339° North 401 461 35,000  Level Jacksonville Center
03:28PM 31.2544 -82.2267 338° Northwest 406 467 35,000  Level Jacksonville Center
03:29PM 31.3611 -82.2794 337° Northwest 411 473 35,000  Level Jacksonville Center
03:30PM 31.5494 -82.3600 340° North 434 499 35,000  Level Atlanta Center
03:31PM 31.6564 -82.4092 339° North 424 488 35,000  Level Atlanta Center
03:32PM 31.7636 -82.4583 339° North 413 475 35,000  Level Atlanta Center
03:33PM 31.8706 -82.5081 338° Northwest 413 475 35,000  Level Atlanta Center
03:34PM 31.9736 -82.5600 337° Northwest 413 475 35,000 -180 Level Atlanta Center
03:35PM 32.0644 -82.6467 321° Northwest 408 470 34,700 -600 Descending Atlanta Center
03:36PM 32.1489 -82.7314 320° Northwest 408 470 33,800 -960 Descending Atlanta Center
03:37PM 32.2372 -82.8183 320° Northwest 408 470 32,800 -1,020 Descending Atlanta Center
03:38PM 32.3258 -82.9081 319° Northwest 413 475 31,800 -1,080 Descending Atlanta Center
03:39PM 32.4100 -82.9931 320° Northwest 413 475 30,700 -1,080 Descending Atlanta Center
03:40PM 32.4942 -83.0758 320° Northwest 408 470 29,700 -1,020 Descending Atlanta Center
03:41PM 32.5764 -83.1614 319° Northwest 408 470 28,700 -1,020 Descending Atlanta Center
03:42PM 32.6603 -83.2419 321° Northwest 402 463 27,700 -1,200 Descending Atlanta Center
03:43PM 32.7381 -83.3228 319° Northwest 386 444 26,300 -1,680 Descending Atlanta Center
03:44PM 32.8136 -83.4011 319° Northwest 375 432 24,400 -1,980 Descending Atlanta Center
03:45PM 32.8911 -83.4772 320° Northwest 364 419 22,400 -1,980 Descending Atlanta Center
03:46PM 32.9689 -83.5583 319° Northwest 369 425 20,500 -1,920 Descending Atlanta Center
03:47PM 33.0442 -83.6350 320° Northwest 362 417 18,600 -1,980 Descending Atlanta Center
03:48PM 33.1217 -83.7114 320° Northwest 345 397 16,600 -2,040 Descending Atlanta Center
03:49PM 33.1886 -83.7806 319° Northwest 325 374 14,600 -1,440 Descending Atlanta Center
03:50PM 33.2494 -83.8600 312° West 320 368 13,800 -1,260 Descending Atlanta Center
03:51PM 33.2975 -83.9319 309° West 320 368 12,100 -900 Descending Atlanta Center
03:52PM 33.3517 -84.0164 308° West 315 362 12,000 -60 Descending Atlanta Center
03:53PM 33.4061 -84.0961 309° West 315 362 12,000  Level Atlanta Center
03:54PM 33.4581 -84.1758 308° West 315 362 12,000  Level Atlanta Center
03:55PM 33.4833 -84.2000 321° Northwest 307 353 12,000  Level Atlanta TRACON
03:56PM 33.5333 -84.2833 306° West 270 311 12,000 -480 Level Atlanta TRACON
03:57PM 33.5500 -84.3500 287° West 259 298 11,100 -1,320 Descending Atlanta TRACON
03:58PM 33.5500 -84.4500 270° West 267 307 9,400 -1,800 Descending Atlanta TRACON
03:59PM 33.5500 -84.5167 270° West 242 278 7,500 -2,100 Descending Atlanta TRACON
04:00PM 33.5500 -84.6000 270° West 223 257 5,300 -2,220 Descending Atlanta TRACON
04:01PM 33.5833 -84.6167 337° Northwest 232 267 3,100 -1,320 Descending Atlanta TRACON
04:02PM 33.6167 -84.5667 51° Northeast 175 201 2,700 -540 Descending Atlanta TRACON
04:03PM 33.6167 -84.5167 90° East 158 182 2,100 -660 Descending Atlanta TRACON
04:04PM 33.6167 -84.4667 90° East 137 158 1,400 -720 Descending Atlanta TRACON
04:06PM 33.6333 -84.4167 64° Northeast  Level FlightAware Approximate
04:13PM 33.6367 -84.4279 64° Northeast  Level Estimated